Homestead, Florida
Current Conditions -  °F | °C
As of 10:53 AM on Friday 24 Oct 2014 (Local Time) from KHST Reporting Station
Heavy Rain Heavy Rain  
Wind Chill: 75°   Ceiling: 900
Heat Index: 75°   Visibility: 1mi
Dew Point: 73°   Wind: 15mph
Humidity: 94%   Direction: 50°NE
Pressure: 29.87"   Gusts: 29mph
Location:  25.48°N, 80.46°W
Report Text: KHST 241453Z 05013G25KT 1SM R05/4000FT +RA BR FEW002 OVC009 24/23 A2987 RMK AO2A
Loading
Personal Weather Stations






























Interactive Weather Map
Tropical Storm Tracking
New forecast layout! Learn more

10-Day Weather Forecast

Advertisements
Track Severe Weather on mobile